KEOK/EOK METAR and TAF weather

Enter ICAO airport designator
Station Type Date Time Source
KEOK METAR 2020/09/30 16:55 UTC NOAA

KEOK 301655Z AUTO 33015G23KT 10SM BKN085 19/08 A2982 RMK AO2


Station Type Date Time Source
KEOK Decoded METAR 2020/09/30 16:55 UTC NOAA

Keokuk Municipal, IA, United States (KEOK) 40-28N 091-26W
Sep 30, 2020 - 12:55 PM EDT / 2020.09.30 1655 UTC
Wind: from the NNW (330 degrees) at 17 MPH (15 KT) gusting to 26 MPH (23 KT):0
Visibility: 10 mile(s):0
Sky conditions: mostly cloudy
Temperature: 66 F (19 C)
Dew Point: 46 F (8 C)
Relative Humidity: 48%
Pressure (altimeter): 29.82 in. Hg (1009 hPa)
ob: KEOK 301655Z AUTO 33015G23KT 10SM BKN085 19/08 A2982 RMK AO2
cycle: 17

Station Type Date Time Source
KEOK TAF UTC NOAA

Error!

Example: see airport list